Time;durP1;ratioP1;P1;durP2;ratioP2;P2;SDS_P1;SDS_P2;PMS_P1;PMS_P2;Temp;Humidity;BMP_temperature;BMP_pressure;BME280_temperature;BME280_humidity;BME280_pressure;Samples;Min_cycle;Max_cycle;Signal;HPM_P1;HPM_P2
2021/09/21 00:02:27;;;;;;;4.00;3.60;;;23.60;54.00;;;;;;6115523;23;20373;-88
2021/09/21 00:04:54;;;;;;;3.70;3.37;;;23.60;54.00;;;;;;6140809;23;20435;-88
2021/09/21 00:07:20;;;;;;;4.57;3.43;;;23.60;54.00;;;;;;6140337;23;20392;-88
2021/09/21 00:09:46;;;;;;;4.03;3.47;;;23.60;54.00;;;;;;6139942;23;20399;-88
2021/09/21 00:12:13;;;;;;;3.90;3.60;;;23.60;54.00;;;;;;6141335;23;20149;-88
2021/09/21 00:14:39;;;;;;;3.80;3.50;;;23.60;54.00;;;;;;6140821;23;20542;-88
2021/09/21 00:17:12;;;;;;;4.33;3.27;;;23.60;53.90;;;;;;6116791;23;20397;-88
2021/09/21 00:19:41;;;;;;;3.67;3.20;;;23.60;53.90;;;;;;6116747;23;20411;-88
2021/09/21 00:22:07;;;;;;;3.73;3.40;;;23.60;54.00;;;;;;6117046;23;20424;-88
2021/09/21 00:24:33;;;;;;;3.80;3.50;;;23.60;53.90;;;;;;6115854;23;20769;-88
2021/09/21 00:26:59;;;;;;;3.57;3.27;;;23.60;54.00;;;;;;6140838;23;20420;-88
2021/09/21 00:29:25;;;;;;;3.70;3.40;;;23.60;53.90;;;;;;6159020;23;20389;-88
2021/09/21 00:31:59;;;;;;;3.77;3.37;;;23.60;54.00;;;;;;6262983;23;20206;-88
2021/09/21 00:34:28;;;;;;;3.33;3.03;;;23.70;54.00;;;;;;6263065;23;20361;-88
2021/09/21 00:36:54;;;;;;;3.60;3.30;;;23.60;53.90;;;;;;6263323;22;20444;-88
2021/09/21 00:39:20;;;;;;;4.20;3.80;;;23.70;54.00;;;;;;6262665;23;20381;-88
2021/09/21 00:41:50;;;;;;;3.67;3.37;;;23.60;53.90;;;;;;6235871;23;20150;-88
2021/09/21 00:44:28;;;;;;;4.03;2.77;;;23.60;54.00;;;;;;6236520;23;20412;-88
2021/09/21 00:47:24;;;;;;;;;;;;;;;;;;;;;
2021/09/21 00:49:50;;;;;;;3.50;3.20;;;23.60;54.00;;;;;;6264284;23;20361;-88
2021/09/21 00:52:17;;;;;;;3.43;2.87;;;23.60;54.10;;;;;;6238291;23;20384;-88
2021/09/21 00:54:46;;;;;;;3.13;2.67;;;23.60;54.00;;;;;;6264873;23;20373;-88
2021/09/21 00:57:13;;;;;;;5.80;4.70;;;23.60;54.00;;;;;;6264250;23;20373;-88
2021/09/21 00:59:53;;;;;;;3.73;3.33;;;23.60;54.10;;;;;;6264479;23;20451;-88
2021/09/21 01:02:28;;;;;;;3.40;3.10;;;23.60;54.00;;;;;;6234495;23;20389;-88
2021/09/21 01:05:06;;;;;;;4.23;3.27;;;23.60;54.00;;;;;;6237996;23;20450;-88
2021/09/21 01:07:39;;;;;;;3.53;3.23;;;23.60;54.00;;;;;;6214342;23;20414;-88
2021/09/21 01:10:10;;;;;;;3.50;3.20;;;23.60;54.10;;;;;;6264224;23;20421;-89
2021/09/21 01:12:36;;;;;;;3.30;2.90;;;23.60;54.10;;;;;;6238207;23;20378;-88
2021/09/21 01:15:03;;;;;;;3.00;2.80;;;23.60;54.10;;;;;;6237683;23;20382;-89
2021/09/21 01:17:29;;;;;;;4.23;3.23;;;23.60;54.10;;;;;;6238204;23;20382;-88
2021/09/21 01:19:55;;;;;;;3.50;3.20;;;23.60;54.10;;;;;;6238358;23;20389;-88
2021/09/21 01:22:21;;;;;;;3.90;3.60;;;23.60;54.10;;;;;;6237750;23;20162;-88
2021/09/21 01:24:47;;;;;;;3.40;2.60;;;23.60;54.10;;;;;;6237400;23;20182;-88
2021/09/21 01:27:13;;;;;;;3.63;3.33;;;23.60;54.10;;;;;;6212509;23;20147;-88
2021/09/21 01:29:39;;;;;;;3.40;2.93;;;23.60;54.10;;;;;;6236986;23;20385;-88
2021/09/21 01:32:06;;;;;;;5.60;2.80;;;23.60;54.10;;;;;;6238502;23;20385;-88
2021/09/21 01:34:35;;;;;;;3.37;2.97;;;23.60;54.10;;;;;;6212216;23;20385;-87
2021/09/21 01:37:03;;;;;;;2.70;2.50;;;23.60;54.10;;;;;;6263773;22;20396;-87
2021/09/21 01:39:28;;;;;;;3.80;3.50;;;23.60;54.10;;;;;;6236809;23;20755;-87
2021/09/21 01:41:57;;;;;;;5.47;3.50;;;23.60;54.10;;;;;;6263421;23;20362;-87
2021/09/21 01:44:25;;;;;;;3.47;2.87;;;23.60;54.10;;;;;;6262963;23;20200;-87
2021/09/21 01:46:54;;;;;;;4.17;3.23;;;23.60;54.10;;;;;;6237415;23;20386;-87
2021/09/21 01:49:20;;;;;;;3.13;2.83;;;23.60;54.60;;;;;;6237063;23;20377;-87
2021/09/21 01:52:02;;;;;;;3.30;3.00;;;23.60;54.10;;;;;;6237083;23;20385;-87
2021/09/21 01:59:47;;;;;;;4.70;3.10;;;23.60;54.10;;;;;;6264458;23;20381;-87
2021/09/21 02:02:13;;;;;;;3.77;3.47;;;23.50;54.00;;;;;;6237721;23;20476;-87
2021/09/21 02:04:39;;;;;;;3.10;2.73;;;23.50;54.00;;;;;;6237847;23;20202;-87
2021/09/21 02:07:05;;;;;;;3.40;3.10;;;23.50;54.00;;;;;;6237221;23;20157;-87
2021/09/21 02:09:31;;;;;;;3.07;2.77;;;23.60;54.20;;;;;;6237296;23;20159;-86
2021/09/21 02:11:56;;;;;;;5.13;3.60;;;23.60;54.10;;;;;;6236591;23;20150;-88
2021/09/21 02:14:23;;;;;;;3.37;3.07;;;23.50;54.00;;;;;;6237148;23;20157;-88
2021/09/21 02:16:54;;;;;;;3.97;3.67;;;23.60;54.10;;;;;;6263355;23;20143;-88
2021/09/21 02:19:20;;;;;;;3.43;3.10;;;23.60;54.10;;;;;;6237542;23;20392;-88
2021/09/21 02:21:46;;;;;;;4.03;3.43;;;23.50;54.00;;;;;;6263915;23;20374;-88
2021/09/21 02:24:24;;;;;;;3.80;3.10;;;23.60;54.10;;;;;;6236588;23;20388;-87
2021/09/21 02:26:50;;;;;;;3.30;3.00;;;23.60;54.10;;;;;;6236939;23;20150;-88
2021/09/21 02:29:16;;;;;;;3.20;2.90;;;23.50;54.00;;;;;;6264088;23;20365;-88
2021/09/21 02:31:45;;;;;;;3.50;3.20;;;23.50;54.00;;;;;;6237159;23;20438;-88
2021/09/21 02:34:24;;;;;;;4.50;3.37;;;23.50;54.00;;;;;;6235544;23;20150;-89
2021/09/21 02:36:50;;;;;;;2.97;2.67;;;23.50;54.00;;;;;;6236759;23;20403;-88
2021/09/21 02:39:18;;;;;;;3.13;2.80;;;23.60;54.20;;;;;;6262910;22;20381;-88
2021/09/21 02:41:43;;;;;;;3.83;3.20;;;23.50;54.10;;;;;;6236109;23;20229;-89
2021/09/21 02:44:09;;;;;;;2.83;2.63;;;23.50;54.00;;;;;;6236018;23;20852;-88
2021/09/21 02:46:35;;;;;;;3.10;2.80;;;23.50;54.10;;;;;;6235756;23;20150;-89
2021/09/21 02:49:01;;;;;;;2.90;2.70;;;23.50;54.10;;;;;;6235831;23;20385;-88
2021/09/21 02:51:30;;;;;;;3.50;3.20;;;23.50;54.00;;;;;;6236037;23;20158;-88
2021/09/21 02:53:56;;;;;;;3.07;2.77;;;23.50;54.10;;;;;;6263395;23;20397;-88
2021/09/21 02:56:22;;;;;;;2.73;2.53;;;23.50;54.00;;;;;;6235886;23;20392;-87
2021/09/21 02:58:51;;;;;;;2.63;2.43;;;23.50;54.10;;;;;;6261952;23;20152;-87
2021/09/21 03:01:19;;;;;;;2.97;2.70;;;23.50;54.10;;;;;;6235546;23;20189;-87
2021/09/21 03:03:54;;;;;;;3.43;2.80;;;23.50;54.10;;;;;;6235745;23;20720;-87
2021/09/21 03:06:32;;;;;;;3.40;3.10;;;23.50;54.10;;;;;;6235870;23;20431;-88
2021/09/21 03:09:09;;;;;;;2.90;2.67;;;23.50;54.10;;;;;;6235729;23;20382;-88
2021/09/21 03:11:41;;;;;;;3.23;2.93;;;23.50;54.10;;;;;;6261763;23;20388;-88
2021/09/21 03:19:26;;;;;;;2.97;2.73;;;23.50;54.10;;;;;;6262255;23;20412;-88
2021/09/21 03:21:53;;;;;;;2.90;2.70;;;23.50;54.10;;;;;;6262206;23;20369;-88
2021/09/21 03:24:19;;;;;;;2.80;2.60;;;23.50;54.20;;;;;;6210892;23;20393;-88
2021/09/21 03:26:45;;;;;;;2.63;2.30;;;23.50;54.20;;;;;;6236975;23;20452;-88
2021/09/21 03:29:11;;;;;;;3.20;2.90;;;23.50;54.10;;;;;;6238528;23;20229;-88
2021/09/21 03:31:37;;;;;;;2.57;2.37;;;23.50;54.20;;;;;;6235898;23;20392;-88
2021/09/21 03:34:03;;;;;;;2.60;2.40;;;23.50;54.10;;;;;;6237935;23;20147;-88
2021/09/21 03:36:28;;;;;;;2.40;2.20;;;23.50;54.10;;;;;;6238249;23;20157;-88
2021/09/21 03:38:54;;;;;;;3.43;3.00;;;23.50;54.10;;;;;;6233594;23;20200;-88
2021/09/21 03:41:23;;;;;;;3.63;3.10;;;23.50;54.10;;;;;;6237046;23;20155;-88
2021/09/21 03:43:49;;;;;;;3.80;2.90;;;23.50;54.10;;;;;;6236067;23;20185;-88
2021/09/21 03:46:16;;;;;;;3.10;2.80;;;23.50;54.10;;;;;;6235463;23;20420;-88
2021/09/21 03:48:43;;;;;;;2.80;2.60;;;23.50;54.10;;;;;;6262795;23;20439;-88
2021/09/21 03:51:10;;;;;;;3.47;3.17;;;23.50;54.20;;;;;;6262294;23;20369;-88
2021/09/21 03:53:42;;;;;;;3.20;2.93;;;23.50;54.10;;;;;;6235152;23;20377;-88
2021/09/21 03:56:08;;;;;;;2.33;2.13;;;23.50;54.20;;;;;;6234943;23;20395;-88
2021/09/21 03:58:33;;;;;;;3.13;2.83;;;23.50;54.20;;;;;;6262523;23;20374;-88
2021/09/21 04:00:59;;;;;;;3.17;2.87;;;23.50;54.20;;;;;;6235369;23;20169;-88
2021/09/21 04:03:25;;;;;;;2.70;2.50;;;23.50;54.30;;;;;;6235365;23;20151;-88
2021/09/21 04:05:51;;;;;;;3.17;2.87;;;23.50;54.20;;;;;;6234755;23;20178;-87
2021/09/21 04:08:16;;;;;;;2.70;2.30;;;23.50;54.20;;;;;;6235301;23;20211;-88
2021/09/21 04:10:42;;;;;;;2.40;2.20;;;23.50;54.20;;;;;;6261273;23;20376;-89
2021/09/21 04:13:11;;;;;;;2.60;2.40;;;23.50;54.20;;;;;;6263147;23;20142;-88
2021/09/21 04:15:36;;;;;;;2.70;2.50;;;23.50;54.20;;;;;;6262745;23;20162;-84
2021/09/21 04:18:04;;;;;;;2.83;2.53;;;23.50;54.20;;;;;;6235200;23;20381;-88
2021/09/21 04:20:31;;;;;;;3.27;2.30;;;23.50;54.20;;;;;;6262968;23;20142;-84
2021/09/21 04:22:57;;;;;;;3.00;2.40;;;23.50;54.20;;;;;;6237949;23;20851;-88
2021/09/21 04:25:22;;;;;;;3.00;2.50;;;23.50;54.20;;;;;;6239537;23;20475;-87
2021/09/21 04:27:48;;;;;;;3.10;2.80;;;23.50;54.20;;;;;;6240232;23;20158;-88
2021/09/21 04:30:20;;;;;;;4.03;2.53;;;23.50;54.20;;;;;;6238354;23;20146;-88
2021/09/21 04:32:46;;;;;;;3.00;2.80;;;23.50;54.20;;;;;;6240329;23;20177;-88
2021/09/21 04:35:15;;;;;;;2.90;2.60;;;23.50;54.20;;;;;;6239208;23;20396;-88
2021/09/21 04:37:43;;;;;;;2.67;2.27;;;23.50;54.20;;;;;;6239007;23;20460;-88
2021/09/21 04:40:11;;;;;;;4.10;2.70;;;23.50;54.10;;;;;;6268211;23;20465;-88
2021/09/21 04:42:37;;;;;;;2.80;2.60;;;23.50;54.10;;;;;;6264935;23;20437;-88
2021/09/21 04:45:03;;;;;;;2.67;2.47;;;23.50;54.10;;;;;;6236339;23;20424;-88
2021/09/21 04:47:29;;;;;;;2.90;2.60;;;23.50;54.10;;;;;;6236262;23;20154;-88
2021/09/21 04:50:05;;;;;;;;;;;;;;;;;;;;;
2021/09/21 04:52:33;;;;;;;2.37;2.17;;;23.50;54.60;;;;;;6257622;23;20181;-88
2021/09/21 04:54:59;;;;;;;2.80;2.27;;;23.50;54.00;;;;;;6237453;23;20385;-88
2021/09/21 04:57:26;;;;;;;2.50;1.97;;;23.50;54.00;;;;;;6262827;23;20463;-88
2021/09/21 04:59:52;;;;;;;2.97;2.57;;;23.50;54.00;;;;;;6237516;23;20389;-88
2021/09/21 05:02:18;;;;;;;3.00;2.47;;;23.50;54.00;;;;;;6236752;23;20444;-88
2021/09/21 05:04:44;;;;;;;2.53;2.33;;;23.60;54.00;;;;;;6263522;23;20178;-88
2021/09/21 05:07:10;;;;;;;2.60;2.40;;;23.60;54.10;;;;;;6237974;23;20421;-88
2021/09/21 05:09:38;;;;;;;2.77;2.40;;;23.60;54.10;;;;;;6236944;23;20388;-88
2021/09/21 05:12:08;;;;;;;8.80;2.87;;;23.60;54.00;;;;;;6237943;23;20155;-88
2021/09/21 05:14:34;;;;;;;3.50;2.30;;;23.60;54.10;;;;;;6237196;23;20405;-88
2021/09/21 05:17:00;;;;;;;3.13;2.67;;;23.60;54.00;;;;;;6237454;23;20421;-87
2021/09/21 05:19:32;;;;;;;2.50;2.30;;;23.60;54.00;;;;;;6237894;23;20411;-88
2021/09/21 05:22:01;;;;;;;2.60;2.40;;;23.60;54.00;;;;;;6239102;23;20366;-87
2021/09/21 05:27:49;;;;;;;4.50;3.30;;;23.60;54.00;;;;;;6265371;23;20377;-88
2021/09/21 05:30:25;;;;;;;2.80;2.30;;;23.60;54.10;;;;;;6240763;23;20385;-88
2021/09/21 05:32:55;;;;;;;2.53;2.33;;;23.60;54.10;;;;;;6238834;23;20385;-88
2021/09/21 05:35:31;;;;;;;3.30;2.20;;;23.60;54.10;;;;;;6264546;23;20366;-88
2021/09/21 05:38:00;;;;;;;2.47;2.27;;;23.60;54.10;;;;;;6239939;23;20419;-87
2021/09/21 05:40:28;;;;;;;2.63;2.43;;;23.60;54.10;;;;;;6265577;23;20384;-86
2021/09/21 05:42:59;;;;;;;2.87;2.50;;;23.60;54.10;;;;;;6237606;23;20389;-88
2021/09/21 05:45:25;;;;;;;2.60;2.40;;;23.60;54.10;;;;;;6237303;23;20417;-87
2021/09/21 05:47:54;;;;;;;3.03;2.73;;;23.60;54.10;;;;;;6236802;23;20386;-87
2021/09/21 05:50:32;;;;;;;2.50;2.30;;;23.70;54.10;;;;;;6237062;23;20381;-87
2021/09/21 05:52:59;;;;;;;2.43;2.23;;;23.60;54.00;;;;;;6211904;23;20431;-86
2021/09/21 05:55:28;;;;;;;2.67;2.23;;;23.60;54.00;;;;;;6237023;23;20420;-87
2021/09/21 05:57:59;;;;;;;2.90;2.70;;;23.60;54.00;;;;;;6263708;23;20379;-87
2021/09/21 06:00:28;;;;;;;2.90;2.40;;;23.60;54.00;;;;;;6238672;23;20415;-88
2021/09/21 06:03:03;;;;;;;2.50;2.30;;;23.60;54.00;;;;;;6263043;23;20436;-87
2021/09/21 06:05:29;;;;;;;2.60;2.40;;;23.60;54.00;;;;;;6236781;23;20425;-88
2021/09/21 06:07:55;;;;;;;3.17;2.87;;;23.60;54.00;;;;;;6263779;23;20456;-88
2021/09/21 06:10:24;;;;;;;2.40;2.20;;;23.60;54.00;;;;;;6237258;23;20852;-88
2021/09/21 06:12:51;;;;;;;3.33;2.60;;;23.60;54.00;;;;;;6237042;23;20146;-88
2021/09/21 06:15:19;;;;;;;2.60;2.40;;;23.60;54.00;;;;;;6235905;23;20385;-88
2021/09/21 06:17:48;;;;;;;2.20;2.00;;;23.60;54.00;;;;;;6212816;23;20385;-88
2021/09/21 06:20:14;;;;;;;2.70;2.50;;;23.70;54.10;;;;;;6238943;23;20389;-88
2021/09/21 06:22:43;;;;;;;2.57;2.37;;;23.70;54.10;;;;;;6266356;23;20381;-88
2021/09/21 06:25:14;;;;;;;2.33;1.90;;;23.70;54.10;;;;;;6263778;23;20413;-88
2021/09/21 06:27:49;;;;;;;2.50;2.30;;;23.70;54.10;;;;;;6239885;23;20447;-88
2021/09/21 06:30:22;;;;;;;2.77;2.50;;;23.70;54.10;;;;;;6239774;23;20430;-88
2021/09/21 06:32:48;;;;;;;3.20;2.13;;;23.70;54.10;;;;;;6237375;23;20384;-88
2021/09/21 06:35:15;;;;;;;2.43;2.20;;;23.70;54.10;;;;;;6240385;23;20392;-88
2021/09/21 06:37:42;;;;;;;2.23;2.03;;;23.70;54.10;;;;;;6265184;22;20385;-87
2021/09/21 06:40:09;;;;;;;2.60;2.30;;;23.70;54.20;;;;;;6263601;23;20389;-87
2021/09/21 06:42:36;;;;;;;2.43;2.20;;;23.70;54.20;;;;;;6237465;23;20389;-87
2021/09/21 06:45:06;;;;;;;1.80;1.70;;;23.70;54.10;;;;;;6236659;23;20491;-87
2021/09/21 06:47:35;;;;;;;2.80;2.60;;;23.70;54.10;;;;;;6236879;23;20385;-87
2021/09/21 06:50:04;;;;;;;2.73;2.50;;;23.70;54.10;;;;;;6262170;23;20366;-87
2021/09/21 06:52:57;;;;;;;2.80;2.50;;;23.70;54.10;;;;;;6234684;23;20389;-87
2021/09/21 06:55:35;;;;;;;2.43;2.23;;;23.70;54.10;;;;;;6257383;23;20450;-87
2021/09/21 06:58:01;;;;;;;2.47;2.27;;;23.70;54.20;;;;;;6236076;23;20443;-87
2021/09/21 07:00:35;;;;;;;2.67;2.47;;;23.70;54.20;;;;;;6236535;23;20435;-87
2021/09/21 07:03:03;;;;;;;2.53;2.13;;;23.70;54.20;;;;;;6237039;23;20388;-88
2021/09/21 07:05:40;;;;;;;2.20;2.00;;;23.70;54.10;;;;;;6262807;23;20419;-88
2021/09/21 07:08:06;;;;;;;2.50;2.30;;;23.80;54.20;;;;;;6237694;23;20385;-88
2021/09/21 07:10:44;;;;;;;;;;;;;;;;;;;;;
2021/09/21 07:13:17;;;;;;;2.53;2.17;;;23.70;54.10;;;;;;6263219;23;20374;-89
2021/09/21 07:16:03;;;;;;;;;;;;;;;;;;;;;
2021/09/21 07:18:54;;;;;;;3.03;2.10;;;23.70;54.20;;;;;;6265834;23;20373;-88
2021/09/21 07:24:52;;;;;;;2.57;2.37;;;23.70;54.20;;;;;;6248354;23;20456;-89
2021/09/21 07:27:47;;;;;;;3.40;2.33;;;23.70;54.20;;;;;;6265857;23;20444;-89
2021/09/21 07:30:48;;;;;;;;;;;;;;;;;;;;;
2021/09/21 07:33:59;;;;;;;;;;;;;;;;;;;;;
2021/09/21 07:36:37;;;;;;;3.27;2.90;;;23.70;54.20;;;;;;6264092;23;20373;-89
2021/09/21 07:39:07;;;;;;;3.10;2.67;;;23.70;54.30;;;;;;6237622;23;20422;-88
2021/09/21 07:41:36;;;;;;;3.20;2.63;;;23.70;54.30;;;;;;6237297;23;20392;-88
2021/09/21 07:47:26;;;;;;;4.23;3.27;;;23.70;54.10;;;;;;6263767;23;20401;-88
2021/09/21 07:49:54;;;;;;;5.10;4.50;;;23.70;53.60;;;;;;6237636;23;20397;-88
2021/09/21 07:52:22;;;;;;;5.10;4.60;;;23.60;53.50;;;;;;6238343;23;20369;-87
2021/09/21 07:54:48;;;;;;;5.33;4.50;;;23.60;53.40;;;;;;6239163;23;20445;-86
2021/09/21 07:57:17;;;;;;;4.87;4.20;;;23.60;53.50;;;;;;6239932;23;20380;-88
2021/09/21 07:59:44;;;;;;;4.90;4.40;;;23.60;53.60;;;;;;6240212;23;20383;-88
2021/09/21 08:02:56;;;;;;;4.67;4.10;;;23.60;53.60;;;;;;6266354;23;20369;-88
2021/09/21 08:05:26;;;;;;;5.77;4.40;;;23.70;53.70;;;;;;6239110;23;20440;-87
2021/09/21 08:07:53;;;;;;;5.20;4.33;;;23.60;53.70;;;;;;6240892;23;20381;-87
2021/09/21 08:10:22;;;;;;;6.03;4.20;;;23.60;53.70;;;;;;6214342;23;20393;-86
2021/09/21 08:12:48;;;;;;;4.33;3.93;;;23.60;53.80;;;;;;6240939;23;20440;-87
2021/09/21 08:15:14;;;;;;;4.30;3.90;;;23.60;53.70;;;;;;6267935;23;20373;-86
2021/09/21 08:17:43;;;;;;;5.20;4.70;;;23.60;53.70;;;;;;6243156;23;20154;-87
2021/09/21 08:20:15;;;;;;;5.40;4.40;;;23.60;53.70;;;;;;6242297;23;20781;-87
2021/09/21 08:22:43;;;;;;;4.63;4.23;;;23.60;53.70;;;;;;6241867;23;20373;-87
2021/09/21 08:25:18;;;;;;;5.03;4.53;;;23.60;53.70;;;;;;6269151;23;20416;-87
2021/09/21 08:27:44;;;;;;;4.57;4.17;;;23.70;53.70;;;;;;6240733;23;20380;-87
2021/09/21 08:30:11;;;;;;;4.23;3.83;;;23.60;53.70;;;;;;6268225;23;20369;-88
2021/09/21 08:32:41;;;;;;;4.13;3.83;;;23.60;53.60;;;;;;6242946;23;20420;-87
2021/09/21 08:35:10;;;;;;;6.80;5.50;;;23.60;53.60;;;;;;6241322;23;20715;-87
2021/09/21 08:44:53;;;;;;;4.87;4.40;;;23.70;53.70;;;;;;6145049;23;20352;-88
2021/09/21 08:47:20;;;;;;;4.23;3.83;;;23.60;53.60;;;;;;6061544;23;20413;-87
2021/09/21 08:49:49;;;;;;;5.00;4.53;;;23.60;53.60;;;;;;6085570;23;20422;-88
2021/09/21 08:55:51;;;;;;;5.47;4.97;;;23.60;53.50;;;;;;6030630;23;20398;-88
2021/09/21 08:58:40;;;;;;;5.10;4.60;;;23.60;53.60;;;;;;6004605;23;20388;-88
2021/09/21 09:01:13;;;;;;;6.50;4.80;;;23.60;53.50;;;;;;6028712;23;20467;-87
2021/09/21 09:04:21;;;;;;;;;;;;;;;;;;;;;
2021/09/21 09:07:01;;;;;;;4.90;4.50;;;23.60;53.50;;;;;;6028369;23;20384;-87
2021/09/21 09:09:35;;;;;;;4.33;3.93;;;23.60;53.50;;;;;;6005079;23;20443;-87
2021/09/21 09:18:12;;;;;;;4.80;4.40;;;23.60;53.40;;;;;;6096013;23;20369;-88
2021/09/21 09:20:40;;;;;;;5.87;4.67;;;23.50;53.40;;;;;;6090143;23;20892;-87
2021/09/21 09:23:59;;;;;;;5.23;4.73;;;23.50;53.40;;;;;;6118803;23;20236;-88
2021/09/21 09:30:22;;;;;;;5.23;4.73;;;23.50;53.30;;;;;;6143604;23;20376;-87
2021/09/21 09:33:00;;;;;;;5.30;4.50;;;23.50;53.40;;;;;;6135314;23;20418;-88
2021/09/21 09:35:34;;;;;;;4.37;4.07;;;23.50;53.40;;;;;;6218246;22;20399;-87
2021/09/21 09:38:06;;;;;;;5.10;4.63;;;23.50;53.40;;;;;;6281807;22;20862;-87
2021/09/21 09:40:39;;;;;;;4.23;3.80;;;23.50;53.40;;;;;;6238989;23;20378;-87
2021/09/21 09:43:08;;;;;;;4.70;4.17;;;23.50;53.30;;;;;;6239517;23;20373;-88
2021/09/21 09:45:37;;;;;;;4.70;4.30;;;23.50;53.30;;;;;;6238874;23;20412;-87
2021/09/21 09:48:08;;;;;;;5.30;4.90;;;23.50;53.30;;;;;;6238632;23;20386;-88
2021/09/21 09:50:42;;;;;;;4.60;4.20;;;23.50;53.30;;;;;;6214199;23;20381;-87
2021/09/21 09:53:21;;;;;;;4.70;4.30;;;23.60;53.40;;;;;;6238671;23;20380;-87
2021/09/21 09:55:51;;;;;;;4.93;4.53;;;23.60;53.30;;;;;;6265709;23;20893;-87
2021/09/21 09:58:18;;;;;;;5.23;4.83;;;23.60;53.30;;;;;;6265517;23;20471;-87
2021/09/21 10:00:45;;;;;;;4.73;4.33;;;23.60;53.30;;;;;;6265629;23;20377;-87
2021/09/21 10:03:30;;;;;;;4.40;4.00;;;23.60;53.20;;;;;;6213815;23;20389;-87
2021/09/21 10:06:51;;;;;;;4.73;4.30;;;23.60;53.10;;;;;;6265654;23;20492;-87
2021/09/21 10:09:44;;;;;;;5.00;4.50;;;23.60;53.10;;;;;;6114237;23;20386;-87
2021/09/21 10:13:07;;;;;;;;;;;;;;;;;;;;;
2021/09/21 10:15:34;;;;;;;5.10;4.67;;;23.60;53.10;;;;;;6107913;23;20388;-87
2021/09/21 10:18:13;;;;;;;4.63;4.23;;;23.50;53.00;;;;;;6090437;23;20395;-87
2021/09/21 10:20:44;;;;;;;5.17;4.70;;;23.50;53.00;;;;;;6090001;23;20381;-87
2021/09/21 10:23:12;;;;;;;4.77;4.37;;;23.60;53.10;;;;;;6113548;23;20754;-87
2021/09/21 10:26:02;;;;;;;4.23;3.83;;;23.50;52.90;;;;;;6114249;23;20436;-87
2021/09/21 10:28:59;;;;;;;5.23;4.73;;;23.60;52.90;;;;;;6089954;23;20489;-87
2021/09/21 10:31:27;;;;;;;5.03;4.53;;;23.60;52.90;;;;;;6113981;23;20385;-87
2021/09/21 10:33:53;;;;;;;4.73;4.33;;;23.50;52.80;;;;;;6089862;23;20393;-87
2021/09/21 10:36:32;;;;;;;4.73;4.33;;;23.50;52.80;;;;;;6089346;23;20389;-88
2021/09/21 10:39:06;;;;;;;4.40;4.00;;;23.60;52.90;;;;;;6115392;23;20428;-87
2021/09/21 10:42:05;;;;;;;4.70;4.30;;;23.50;52.80;;;;;;6118871;23;20422;-87
2021/09/21 10:44:32;;;;;;;4.83;4.43;;;23.50;52.80;;;;;;6113343;23;20385;-87
2021/09/21 10:47:06;;;;;;;5.33;4.83;;;23.50;52.80;;;;;;6212799;23;20413;-87
2021/09/21 10:49:37;;;;;;;4.80;4.00;;;23.50;52.80;;;;;;6239484;23;20431;-88
2021/09/21 10:52:51;;;;;;;4.60;4.20;;;23.50;52.70;;;;;;6239311;23;20395;-87
2021/09/21 10:55:18;;;;;;;4.90;4.30;;;23.50;52.70;;;;;;6225081;23;20851;-87
2021/09/21 10:57:53;;;;;;;5.23;4.70;;;23.50;52.70;;;;;;6238033;23;20430;-87
2021/09/21 11:00:20;;;;;;;4.70;4.30;;;23.50;52.60;;;;;;6238466;23;20384;-87
2021/09/21 11:02:51;;;;;;;4.63;4.20;;;23.50;52.60;;;;;;6239257;23;20481;-87
2021/09/21 11:05:27;;;;;;;5.00;4.50;;;23.50;52.50;;;;;;6238695;23;20417;-87
2021/09/21 11:14:40;;;;;;;4.77;4.37;;;23.50;52.30;;;;;;6265831;23;20360;-87
2021/09/21 11:17:09;;;;;;;4.73;4.33;;;23.50;52.30;;;;;;6238844;23;20397;-87
2021/09/21 11:19:36;;;;;;;4.93;4.20;;;23.50;52.30;;;;;;6264783;23;20369;-87
2021/09/21 11:22:10;;;;;;;5.27;4.77;;;23.40;52.20;;;;;;6265605;23;20365;-87
2021/09/21 11:31:00;;;;;;;6.07;5.47;;;23.40;52.10;;;;;;6229346;23;20365;-87
2021/09/21 11:33:55;;;;;;;;;;;;;;;;;;;;;
2021/09/21 11:36:24;;;;;;;15.10;13.50;;;23.40;52.00;;;;;;6230571;23;20363;-87
2021/09/21 11:38:57;;;;;;;17.90;14.93;;;23.40;52.10;;;;;;6204234;23;20383;-88
2021/09/21 11:41:44;;;;;;;;;;;;;;;;;;;;;
2021/09/21 11:47:20;;;;;;;44.03;30.93;;;23.50;52.10;;;;;;6182572;23;20418;-88
2021/09/21 11:50:28;;;;;;;;;;;;;;;;;;;;;
2021/09/21 11:56:59;;;;;;;;;;;;;;;;;;;;;
2021/09/21 11:59:44;;;;;;;55.33;40.97;;;23.50;52.20;;;;;;6240334;23;20974;-89
2021/09/21 12:06:30;;;;;;;47.40;33.07;;;23.50;52.20;;;;;;6261141;23;20397;-88
2021/09/21 12:09:06;;;;;;;;;;;;;;;;;;;;;
2021/09/21 12:11:57;;;;;;;40.53;29.70;;;23.40;52.20;;;;;;6109331;23;20409;-88
2021/09/21 12:14:45;;;;;;;;;;;;;;;;;;;;;
2021/09/21 12:17:56;;;;;;;;;;;;;;;;;;;;;
2021/09/21 12:20:59;;;;;;;;;;;;;;;;;;;;;
2021/09/21 12:27:55;;;;;;;;;;;;;;;;;;;;;
2021/09/21 12:33:59;;;;;;;32.77;25.67;;;23.40;52.10;;;;;;5984535;24;20905;-88
2021/09/21 12:51:34;;;;;;;;;;;;;;;;;;;;;
2021/09/21 12:54:32;;;;;;;;;;;;;;;;;;;;;
2021/09/21 13:04:07;;;;;;;21.50;17.60;;;23.50;52.10;;;;;;5927228;23;20381;-87
2021/09/21 13:07:04;;;;;;;26.07;19.20;;;23.50;52.00;;;;;;5918846;24;20963;-88
2021/09/21 13:16:36;;;;;;;;;;;;;;;;;;;;;
2021/09/21 13:19:02;;;;;;;20.27;17.43;;;23.50;52.10;;;;;;5858790;24;20386;-87
2021/09/21 13:21:40;;;;;;;;;;;;;;;;;;;;;
2021/09/21 13:30:24;;;;;;;19.33;16.37;;;23.50;52.00;;;;;;5968498;24;20389;-86
2021/09/21 13:32:50;;;;;;;32.53;19.37;;;23.50;52.00;;;;;;5971044;24;20453;-85
2021/09/21 13:35:29;;;;;;;17.67;15.37;;;23.50;51.60;;;;;;5971231;24;20378;-86
2021/09/21 13:37:56;;;;;;;23.07;18.40;;;23.50;51.50;;;;;;6082359;23;20200;-86
2021/09/21 13:40:32;;;;;;;21.50;16.57;;;23.60;51.50;;;;;;6084154;23;20378;-89
2021/09/21 13:43:32;;;;;;;19.13;15.60;;;23.60;51.40;;;;;;6058581;23;20393;-89
2021/09/21 13:46:00;;;;;;;20.87;16.47;;;23.70;51.30;;;;;;6083190;23;20424;-88
2021/09/21 13:48:28;;;;;;;19.27;16.10;;;23.70;51.40;;;;;;6095043;23;20382;-87
2021/09/21 13:51:08;;;;;;;19.63;16.30;;;23.70;52.00;;;;;;6230277;23;20437;-88
2021/09/21 13:53:42;;;;;;;22.67;16.20;;;23.80;51.60;;;;;;6233974;23;20451;-87
2021/09/21 13:56:18;;;;;;;18.70;15.80;;;23.80;51.60;;;;;;6255888;22;20417;-88
2021/09/21 13:58:50;;;;;;;19.03;15.27;;;23.80;51.70;;;;;;6256354;22;20365;-88
2021/09/21 14:01:28;;;;;;;18.33;15.27;;;23.90;51.80;;;;;;6255492;23;20427;-87
2021/09/21 14:03:54;;;;;;;19.47;15.30;;;23.90;51.70;;;;;;6256773;22;20366;-88
2021/09/21 14:06:23;;;;;;;20.80;15.70;;;23.90;51.80;;;;;;6255561;22;20420;-87
2021/09/21 14:09:01;;;;;;;16.27;14.23;;;23.90;51.80;;;;;;6255998;23;20173;-87
2021/09/21 14:12:09;;;;;;;17.80;14.30;;;24.00;51.90;;;;;;6263596;22;20411;-88
2021/09/21 14:19:10;;;;;;;;;;;;;;;;;;;;;
2021/09/21 14:25:00;;;;;;;18.53;12.90;;;24.00;52.10;;;;;;6246071;22;20905;-86
2021/09/21 14:27:45;;;;;;;18.10;14.80;;;24.00;52.10;;;;;;6256654;22;20405;-87
2021/09/21 14:30:37;;;;;;;19.03;13.33;;;24.00;52.10;;;;;;6255493;22;20373;-86
2021/09/21 14:39:25;;;;;;;14.83;13.03;;;24.10;52.20;;;;;;6256401;23;20580;-86
2021/09/21 14:41:58;;;;;;;15.10;11.87;;;24.10;52.20;;;;;;6255751;22;20361;-86
2021/09/21 14:50:42;;;;;;;15.97;12.87;;;24.20;52.30;;;;;;6228446;23;20346;-87
2021/09/21 14:53:25;;;;;;;15.23;13.10;;;24.10;52.30;;;;;;6203769;23;20398;-88
2021/09/21 14:56:10;;;;;;;15.60;13.30;;;24.20;52.40;;;;;;6201718;23;20825;-89
2021/09/21 14:58:45;;;;;;;14.47;12.37;;;24.20;52.40;;;;;;6204692;23;20389;-86
2021/09/21 15:01:20;;;;;;;13.80;12.30;;;24.20;52.40;;;;;;6202340;23;20388;-87
2021/09/21 15:03:49;;;;;;;16.30;12.50;;;24.20;52.40;;;;;;6202958;23;20385;-86
2021/09/21 15:06:15;;;;;;;14.63;12.00;;;24.20;52.40;;;;;;6230281;23;20414;-86
2021/09/21 15:08:46;;;;;;;14.63;11.00;;;24.20;52.40;;;;;;6200935;23;20397;-86
2021/09/21 15:14:34;;;;;;;12.90;11.60;;;24.30;52.50;;;;;;6224025;23;20465;-86
2021/09/21 15:20:27;;;;;;;13.00;11.43;;;24.20;52.40;;;;;;6226288;23;20138;-88
2021/09/21 15:23:17;;;;;;;;;;;;;;;;;;;;;
2021/09/21 15:25:52;;;;;;;11.57;10.40;;;24.20;52.40;;;;;;6259882;23;20437;-89
2021/09/21 15:28:19;;;;;;;12.20;11.00;;;24.20;52.40;;;;;;6257740;22;20373;-88
2021/09/21 15:31:41;;;;;;;;;;;;;;;;;;;;;
2021/09/21 15:34:12;;;;;;;11.13;9.90;;;24.20;52.20;;;;;;6259640;23;20495;-85
2021/09/21 15:40:40;;;;;;;;;;;;;;;;;;;;;
2021/09/21 15:44:35;;;;;;;;;;;;;;;;;;;;;
2021/09/21 17:37:24;;;;;;;;;;;;;;;;;;;;;
2021/09/21 17:40:53;;;;;;;;;;;;;;;;;;;;;
2021/09/21 19:54:53;;;;;;;;;;;;;;;;;;;;;
2021/09/21 20:00:58;;;;;;;18.00;14.83;;;23.40;52.20;;;;;;6073160;23;20406;-88
2021/09/21 20:03:29;;;;;;;17.60;13.70;;;23.40;52.30;;;;;;6197320;23;20375;-87
2021/09/21 20:06:00;;;;;;;19.33;14.90;;;23.40;52.30;;;;;;6153675;23;20426;-86
2021/09/21 20:08:28;;;;;;;16.57;14.50;;;23.40;52.30;;;;;;6260749;22;20361;-86
2021/09/21 20:11:01;;;;;;;19.00;15.90;;;23.40;52.20;;;;;;6264699;22;20377;-87
2021/09/21 20:13:29;;;;;;;21.07;15.17;;;23.40;52.20;;;;;;6265765;23;20373;-87
2021/09/21 20:16:25;;;;;;;17.13;14.83;;;23.40;52.20;;;;;;6266673;22;20407;-87